DLH103 LLER-EGLL
Flight info
| Callsign | DLH103 |
|---|---|
| Flight time | N/A |
| Altitude | 40000 |
| Route | NURIT J10 ZFR T94 OBAKO T80 MIRTA Q163 SUVAS N128 OTHON UN128 RDS UL609 MES UG18 FSK UL608 DISOR DCT LONTA UL608 DOLEV DCT PODOB DCT SONIK DCT ROTAR DCT SOTOV P66 KPT L608 ULNOK Y127 ADENU L608 DENUT L610 DIBLI |
| Aircraft | A359/H-SDE2E3GHIJ3J4J5LM1ORWXY/LB1D1 |
Departure
| Time | 2026-05-08 08:04 |
|---|---|
| Airport | Ramon International Airport (LLER) |
Arrival
| Time | N/A |
|---|---|
| Airport | London Heathrow Airport (EGLL) |
| Time | Latitude | Longitude | Altitude | Speed | Heading |
|---|---|---|---|---|---|
| 2026-05-08 07:59 | 29.72489 | 35.00981 | 304 ft | 4 kts | 103° |
| 2026-05-08 07:59 | 29.72490 | 35.00976 | 304 ft | 3 kts | 103° |
| 2026-05-08 07:59 | 29.72497 | 35.00946 | 306 ft | 4 kts | 103° |
| 2026-05-08 08:00 | 29.72502 | 35.00922 | 304 ft | 4 kts | 119° |
| 2026-05-08 08:00 | 29.72513 | 35.00906 | 306 ft | 4 kts | 161° |
| 2026-05-08 08:00 | 29.72537 | 35.00902 | 305 ft | 4 kts | 186° |
| 2026-05-08 08:00 | 29.72559 | 35.00906 | 307 ft | 0 kts | 193° |
| 2026-05-08 08:02 | 29.72539 | 35.00900 | 308 ft | 10 kts | 194° |
| 2026-05-08 08:03 | 29.72428 | 35.00931 | 308 ft | 25 kts | 124° |
| 2026-05-08 08:03 | 29.72302 | 35.01076 | 305 ft | 31 kts | 185° |
| 2026-05-08 08:03 | 29.72206 | 35.01206 | 306 ft | 27 kts | 95° |
| 2026-05-08 08:03 | 29.72363 | 35.01317 | 307 ft | 54 kts | 14° |
| 2026-05-08 08:04 | 29.72750 | 35.01422 | 304 ft | 114 kts | 13° |
| 2026-05-08 08:04 | 29.73773 | 35.01709 | 454 ft | 179 kts | 14° |
| 2026-05-08 08:04 | 29.75038 | 35.02071 | 1351 ft | 189 kts | 13° |
| 2026-05-08 08:04 | 29.76313 | 35.02383 | 2019 ft | 192 kts | 9° |
| 2026-05-08 08:05 | 29.77695 | 35.02604 | 2303 ft | 210 kts | 6° |
| 2026-05-08 08:05 | 29.78829 | 35.02741 | 2478 ft | 225 kts | 5° |
| 2026-05-08 08:05 | 29.80444 | 35.02921 | 2810 ft | 240 kts | 5° |
| 2026-05-08 08:05 | 29.82146 | 35.03113 | 3230 ft | 252 kts | 6° |
| 2026-05-08 08:06 | 29.83923 | 35.03329 | 3737 ft | 260 kts | 7° |
| 2026-05-08 08:06 | 29.85733 | 35.03567 | 4337 ft | 263 kts | 8° |
| 2026-05-08 08:06 | 29.87568 | 35.03819 | 4889 ft | 269 kts | 9° |
| 2026-05-08 08:06 | 29.89450 | 35.04086 | 5425 ft | 274 kts | 9° |
| 2026-05-08 08:07 | 29.91369 | 35.04363 | 5915 ft | 281 kts | 9° |
| 2026-05-08 08:07 | 29.93317 | 35.04646 | 6470 ft | 285 kts | 9° |
| 2026-05-08 08:07 | 29.95301 | 35.04931 | 7010 ft | 288 kts | 9° |
| 2026-05-08 08:07 | 29.97294 | 35.05216 | 7608 ft | 289 kts | 8° |
| 2026-05-08 08:08 | 29.99285 | 35.05499 | 8234 ft | 289 kts | 8° |
| 2026-05-08 08:08 | 30.01289 | 35.05784 | 8871 ft | 290 kts | 8° |
| 2026-05-08 08:08 | 30.03295 | 35.06069 | 9493 ft | 291 kts | 7° |
| 2026-05-08 08:08 | 30.05282 | 35.06350 | 10101 ft | 292 kts | 7° |
| 2026-05-08 08:09 | 30.07331 | 35.06641 | 10433 ft | 303 kts | 7° |
| 2026-05-08 08:09 | 30.09465 | 35.06992 | 10670 ft | 317 kts | 9° |
| 2026-05-08 08:09 | 30.11684 | 35.07443 | 10887 ft | 330 kts | 10° |
| 2026-05-08 08:09 | 30.13978 | 35.07946 | 11116 ft | 342 kts | 10° |
| 2026-05-08 08:10 | 30.16348 | 35.08473 | 11338 ft | 353 kts | 10° |
| 2026-05-08 08:10 | 30.18794 | 35.09008 | 11587 ft | 361 kts | 9° |
| 2026-05-08 08:10 | 30.21279 | 35.09541 | 11959 ft | 365 kts | 9° |
| 2026-05-08 08:10 | 30.23781 | 35.10066 | 12382 ft | 368 kts | 9° |
| 2026-05-08 08:11 | 30.26320 | 35.10567 | 12773 ft | 371 kts | 8° |
| 2026-05-08 08:11 | 30.28871 | 35.11042 | 13181 ft | 373 kts | 8° |
| 2026-05-08 08:11 | 30.31442 | 35.11511 | 13597 ft | 375 kts | 7° |
| 2026-05-08 08:11 | 30.34023 | 35.11982 | 14010 ft | 376 kts | 8° |
| 2026-05-08 08:12 | 30.36615 | 35.12470 | 14377 ft | 379 kts | 8° |
| 2026-05-08 08:12 | 30.39228 | 35.12969 | 14723 ft | 382 kts | 8° |
| 2026-05-08 08:12 | 30.41852 | 35.13474 | 15072 ft | 384 kts | 8° |
| 2026-05-08 08:12 | 30.44502 | 35.13987 | 15423 ft | 387 kts | 8° |
| 2026-05-08 08:13 | 30.47159 | 35.14501 | 15791 ft | 389 kts | 8° |
| 2026-05-08 08:13 | 30.49841 | 35.15021 | 16134 ft | 392 kts | 7° |
| 2026-05-08 08:13 | 30.52536 | 35.15543 | 16508 ft | 394 kts | 7° |
| 2026-05-08 08:13 | 30.55250 | 35.16067 | 16878 ft | 396 kts | 7° |
| 2026-05-08 08:14 | 30.57972 | 35.16629 | 17245 ft | 399 kts | 9° |
| 2026-05-08 08:14 | 30.60689 | 35.17368 | 17628 ft | 402 kts | 12° |
| 2026-05-08 08:14 | 30.63198 | 35.18145 | 17949 ft | 405 kts | 13° |
| 2026-05-08 08:14 | 30.65843 | 35.18995 | 18294 ft | 407 kts | 13° |
| 2026-05-08 08:15 | 30.68549 | 35.19861 | 18610 ft | 409 kts | 13° |
| 2026-05-08 08:15 | 30.71340 | 35.20734 | 18924 ft | 411 kts | 13° |
| 2026-05-08 08:15 | 30.74074 | 35.21570 | 19227 ft | 413 kts | 12° |
| 2026-05-08 08:15 | 30.76904 | 35.22420 | 19564 ft | 415 kts | 12° |
| 2026-05-08 08:16 | 30.79668 | 35.23244 | 19871 ft | 417 kts | 12° |
| 2026-05-08 08:16 | 30.82488 | 35.24080 | 20185 ft | 419 kts | 12° |
| 2026-05-08 08:16 | 30.85311 | 35.24916 | 20486 ft | 421 kts | 12° |
| 2026-05-08 08:16 | 30.88158 | 35.25760 | 20784 ft | 423 kts | 12° |
| 2026-05-08 08:17 | 30.89892 | 35.26276 | 20967 ft | 424 kts | 12° |
| 2026-05-08 08:17 | 30.92103 | 35.26934 | 21217 ft | 425 kts | 12° |
| 2026-05-08 08:17 | 30.94979 | 35.27790 | 21517 ft | 427 kts | 12° |
| 2026-05-08 08:17 | 30.97867 | 35.28649 | 21807 ft | 430 kts | 12° |
| 2026-05-08 08:18 | 31.00788 | 35.29399 | 22094 ft | 430 kts | 6° |
| 2026-05-08 08:18 | 31.03681 | 35.29647 | 22381 ft | 429 kts | 356° |
| 2026-05-08 08:18 | 31.06635 | 35.29269 | 22672 ft | 427 kts | 346° |
| 2026-05-08 08:18 | 31.09456 | 35.28204 | 22943 ft | 426 kts | 334° |
| 2026-05-08 08:19 | 31.12032 | 35.26505 | 23221 ft | 426 kts | 324° |
| 2026-05-08 08:19 | 31.14451 | 35.24531 | 23512 ft | 427 kts | 322° |
| 2026-05-08 08:19 | 31.14915 | 35.24130 | 23565 ft | 427 kts | 321° |
| 2026-05-08 08:19 | 31.17073 | 35.22213 | 23796 ft | 428 kts | 321° |
| 2026-05-08 08:20 | 31.19427 | 35.20071 | 24064 ft | 429 kts | 320° |
| 2026-05-08 08:20 | 31.21785 | 35.17921 | 24317 ft | 431 kts | 321° |
| 2026-05-08 08:20 | 31.24106 | 35.15820 | 24558 ft | 432 kts | 321° |
| 2026-05-08 08:20 | 31.26492 | 35.13679 | 24820 ft | 433 kts | 321° |
| 2026-05-08 08:21 | 31.28888 | 35.11545 | 25101 ft | 433 kts | 321° |
| 2026-05-08 08:21 | 31.31168 | 35.09246 | 25363 ft | 433 kts | 314° |
| 2026-05-08 08:21 | 31.33123 | 35.06577 | 25631 ft | 433 kts | 305° |
| 2026-05-08 08:21 | 31.34834 | 35.03674 | 25913 ft | 434 kts | 303° |